| time (UTC) | temp F | wind direction | speed MPH | gust MPH | rain 1hr in | rain 24hr in | rain mn in | humidity % | barometer mb |
| 20260507090527 | 51 | 343 | 3.0 | 6.0 | 0.00 | 0.12 | 0.12 | 83 | 1009.7 |
| 20260507090042 | 51 | 321 | 2.0 | 5.0 | 0.00 | 0.12 | 0.12 | 84 | 1009.7 |
| 20260507085526 | 51 | 331 | 1.0 | 4.0 | 0.00 | 0.12 | 0.12 | 84 | 1009.6 |
| 20260507085026 | 51 | 319 | 2.0 | 4.0 | 0.00 | 0.12 | 0.12 | 84 | 1009.6 |
| 20260507084543 | 51 | 327 | 1.0 | 6.0 | 0.00 | 0.12 | 0.12 | 84 | 1009.6 |
| 20260507084030 | 51 | 0 | 2.0 | 6.0 | 0.00 | 0.12 | 0.12 | 84 | 1009.6 |
| 20260507083530 | 51 | 326 | 1.0 | 8.0 | 0.00 | 0.12 | 0.12 | 84 | 1009.7 |
| 20260507083047 | 51 | 329 | 3.0 | 9.0 | 0.00 | 0.12 | 0.12 | 84 | 1009.6 |
| 20260507082525 | 51 | 328 | 2.0 | 10.0 | 0.00 | 0.12 | 0.12 | 84 | 1009.6 |
| 20260507082025 | 51 | 335 | 3.0 | 10.0 | 0.00 | 0.12 | 0.12 | 84 | 1009.5 |
| 20260507081544 | 50 | 18 | 2.0 | 9.0 | 0.00 | 0.12 | 0.12 | 84 | 1009.5 |
| 20260507081026 | 50 | 339 | 2.0 | 9.0 | 0.00 | 0.12 | 0.12 | 85 | 1009.5 |
| 20260507080528 | 51 | 286 | 2.0 | 12.0 | 0.00 | 0.12 | 0.12 | 85 | 1009.5 |
| 20260507080044 | 51 | 340 | 3.0 | 12.0 | 0.00 | 0.12 | 0.12 | 85 | 1009.5 |
| 20260507075525 | 51 | 332 | 3.0 | 11.0 | 0.00 | 0.12 | 0.12 | 85 | 1009.5 |
| 20260507075030 | 51 | 327 | 3.0 | 11.0 | 0.00 | 0.12 | 0.12 | 85 | 1009.4 |
| 20260507074552 | 51 | 319 | 3.0 | 9.0 | 0.00 | 0.12 | 0.12 | 86 | 1009.6 |
| 20260507074027 | 51 | 337 | 3.0 | 11.0 | 0.00 | 0.12 | 0.12 | 87 | 1009.6 |
| 20260507073528 | 51 | 340 | 2.0 | 11.0 | 0.00 | 0.12 | 0.12 | 87 | 1009.7 |
| 20260507073045 | 51 | 318 | 2.0 | 12.0 | 0.01 | 0.12 | 0.12 | 87 | 1009.7 |
| 20260507072528 | 51 | 330 | 4.0 | 12.0 | 0.01 | 0.12 | 0.12 | 86 | 1009.7 |
| 20260507072027 | 51 | 13 | 3.0 | 11.0 | 0.03 | 0.12 | 0.12 | 87 | 1009.7 |
| 20260507071546 | 51 | 297 | 4.0 | 12.0 | 0.04 | 0.12 | 0.12 | 87 | 1009.6 |
| 20260507071028 | 52 | 313 | 5.0 | 12.0 | 0.06 | 0.12 | 0.12 | 88 | 1009.6 |
| 20260507070528 | 52 | 313 | 3.0 | 8.0 | 0.09 | 0.12 | 0.12 | 91 | 1010.0 |
| 20260507070049 | 52 | 284 | 1.0 | 4.0 | 0.09 | 0.12 | 0.12 | 92 | 1010.3 |
| 20260507065528 | 52 | 310 | 1.0 | 4.0 | 0.09 | 0.12 | 0.12 | 92 | 1009.8 |
| 20260507065027 | 52 | 324 | 1.0 | 3.0 | 0.10 | 0.12 | 0.12 | 91 | 1009.5 |
| 20260507064557 | 52 | 342 | 0.0 | 3.0 | 0.12 | 0.12 | 0.12 | 91 | 1009.6 |
| 20260507064024 | 52 | 320 | 1.0 | 7.0 | 0.12 | 0.12 | 0.12 | 90 | 1009.3 |
| 20260507063525 | 52 | 311 | 1.0 | 7.0 | 0.12 | 0.12 | 0.12 | 90 | 1009.7 |
| 20260507063047 | 52 | 333 | 2.0 | 14.0 | 0.11 | 0.11 | 0.11 | 89 | 1009.2 |
| 20260507062528 | 52 | 57 | 1.0 | 14.0 | 0.10 | 0.10 | 0.10 | 89 | 1009.0 |
| 20260507062028 | 53 | 317 | 4.0 | 14.0 | 0.09 | 0.09 | 0.09 | 88 | 1009.6 |
| 20260507061541 | 53 | 329 | 3.0 | 10.0 | 0.07 | 0.07 | 0.07 | 88 | 1009.8 |
| 20260507061027 | 53 | 275 | 1.0 | 17.0 | 0.06 | 0.06 | 0.06 | 86 | 1009.6 |
| 20260507060528 | 54 | 30 | 4.0 | 17.0 | 0.03 | 0.03 | 0.03 | 84 | 1009.3 |
| 20260507060045 | 55 | 340 | 4.0 | 11.0 | 0.03 | 0.03 | 0.03 | 82 | 1009.6 |
| 20260507055528 | 56 | 343 | 4.0 | 15.0 | 0.03 | 0.03 | 0.03 | 81 | 1009.4 |
| 20260507055027 | 57 | 315 | 5.0 | 15.0 | 0.02 | 0.02 | 0.02 | 77 | 1009.0 |
| 20260507054544 | 57 | 313 | 2.0 | 8.0 | 0.00 | 0.00 | 0.00 | 80 | 1010.2 |
| 20260507054031 | 57 | 10 | 3.0 | 9.0 | 0.00 | 0.00 | 0.00 | 79 | 1009.3 |
| 20260507053529 | 57 | 333 | 3.0 | 9.0 | 0.00 | 0.00 | 0.00 | 78 | 1008.7 |
| 20260507053045 | 58 | 328 | 2.0 | 11.0 | 0.00 | 0.00 | 0.00 | 79 | 1008.8 |
| 20260507052527 | 58 | 309 | 4.0 | 11.0 | 0.00 | 0.00 | 0.00 | 79 | 1009.1 |
| 20260507052028 | 58 | 349 | 3.0 | 10.0 | 0.00 | 0.00 | 0.00 | 80 | 1009.0 |
| 20260507051544 | 59 | 329 | 4.0 | 13.0 | 0.00 | 0.00 | 0.00 | 79 | 1008.9 |
| 20260507051030 | 59 | 295 | 3.0 | 13.0 | 0.00 | 0.00 | 0.00 | 79 | 1009.1 |
| 20260507050528 | 60 | 338 | 4.0 | 13.0 | 0.00 | 0.00 | 0.00 | 79 | 1008.9 |
| 20260507050043 | 60 | 349 | 3.0 | 9.0 | 0.00 | 0.00 | 0.00 | 80 | 1008.7 |
| 20260507045528 | 60 | 40 | 3.0 | 11.0 | 0.00 | 0.00 | 0.00 | 80 | 1008.2 |
| 20260507045028 | 61 | 345 | 2.0 | 11.0 | 0.00 | 0.00 | 0.00 | 79 | 1007.9 |
| 20260507044540 | 62 | 49 | 4.0 | 11.0 | 0.00 | 0.00 | 0.00 | 79 | 1008.1 |
| 20260507044028 | 63 | 334 | 2.0 | 7.0 | 0.00 | 0.00 | 0.00 | 81 | 1008.1 |
| 20260507043526 | 63 | 10 | 2.0 | 9.0 | 0.00 | 0.00 | 0.00 | 81 | 1008.3 |
| 20260507043045 | 64 | 336 | 3.0 | 9.0 | 0.00 | 0.00 | 0.00 | 81 | 1008.1 |
| 20260507042528 | 64 | 327 | 2.0 | 6.0 | 0.00 | 0.00 | 0.00 | 80 | 1008.1 |
| 20260507042025 | 64 | 343 | 2.0 | 5.0 | 0.00 | 0.00 | 0.00 | 81 | 1007.9 |
| 20260507041553 | 64 | 316 | 1.0 | 6.0 | 0.00 | 0.00 | 0.00 | 81 | 1008.1 |
| 20260507041026 | 64 | 352 | 2.0 | 6.0 | 0.00 | 0.00 | 0.00 | 82 | 1008.3 |
| 20260507040529 | 64 | 337 | 2.0 | 4.0 | 0.00 | 0.00 | 0.00 | 82 | 1008.0 |
| 20260507040044 | 64 | 299 | 1.0 | 3.0 | 0.00 | 0.00 | 0.00 | 82 | 1008.0 |
| 20260507035527 | 65 | 0 | 1.0 | 5.0 | 0.00 | 0.00 | 0.00 | 83 | 1007.9 |
| 20260507035025 | 65 | 324 | 1.0 | 7.0 | 0.00 | 0.00 | 0.00 | 83 | 1007.9 |
| 20260507034544 | 65 | 293 | 1.0 | 7.0 | 0.00 | 0.00 | 0.00 | 82 | 1008.2 |
| 20260507034028 | 65 | 298 | 1.0 | 3.0 | 0.00 | 0.00 | 0.00 | 82 | 1008.2 |
| 20260507033528 | 65 | 284 | 1.0 | 2.0 | 0.00 | 0.00 | 0.00 | 81 | 1008.1 |
| 20260507033047 | 65 | 288 | 0.0 | 2.0 | 0.00 | 0.00 | 0.00 | 81 | 1008.1 |
| 20260507032526 | 65 | 304 | 1.0 | 2.0 | 0.00 | 0.00 | 0.00 | 81 | 1008.0 |
| 20260507032025 | 65 | 267 | 0.0 | 1.0 | 0.00 | 0.00 | 0.00 | 81 | 1007.7 |
| 20260507031544 | 65 | 240 | 0.0 | 2.0 | 0.00 | 0.00 | 0.00 | 81 | 1007.5 |
| 20260507031028 | 65 | 245 | 0.0 | 3.0 | 0.00 | 0.00 | 0.00 | 81 | 1007.5 |
| 20260507030528 | 65 | 163 | 1.0 | 3.0 | 0.00 | 0.00 | 0.00 | 81 | 1007.7 |
| 20260507030045 | 66 | 221 | 1.0 | 3.0 | 0.00 | 0.00 | 0.00 | 80 | 1007.7 |
| 20260507025525 | 66 | 276 | 1.0 | 3.0 | 0.00 | 0.00 | 0.00 | 80 | 1007.9 |
| 20260507025025 | 66 | 0 | 1.0 | 3.0 | 0.00 | 0.00 | 0.00 | 80 | 1008.1 |
| 20260507024541 | 66 | 217 | 1.0 | 5.0 | 0.00 | 0.00 | 0.00 | 80 | 1008.1 |
| 20260507024027 | 66 | 278 | 1.0 | 5.0 | 0.00 | 0.00 | 0.00 | 80 | 1008.0 |
| 20260507023528 | 66 | 265 | 1.0 | 5.0 | 0.00 | 0.00 | 0.00 | 80 | 1007.7 |
| 20260507023037 | 66 | 247 | 2.0 | 5.0 | 0.00 | 0.00 | 0.00 | 80 | 1007.8 |
| 20260507022527 | 66 | 248 | 1.0 | 8.0 | 0.00 | 0.00 | 0.00 | 80 | 1007.9 |
| 20260507022026 | 66 | 277 | 2.0 | 8.0 | 0.00 | 0.00 | 0.00 | 80 | 1008.1 |
| 20260507021550 | 66 | 255 | 1.0 | 6.0 | 0.00 | 0.00 | 0.00 | 80 | 1008.2 |
| 20260507021027 | 66 | 267 | 1.0 | 5.0 | 0.00 | 0.00 | 0.00 | 80 | 1008.3 |
| 20260507020526 | 66 | 269 | 1.0 | 4.0 | 0.00 | 0.00 | 0.00 | 80 | 1008.3 |
| 20260507020045 | 66 | 261 | 1.0 | 3.0 | 0.00 | 0.00 | 0.00 | 80 | 1008.2 |
| 20260507015525 | 66 | 254 | 1.0 | 3.0 | 0.00 | 0.00 | 0.00 | 80 | 1008.2 |
| 20260507015029 | 66 | 253 | 0.0 | 6.0 | 0.00 | 0.00 | 0.00 | 80 | 1008.2 |
| 20260507014555 | 66 | 247 | 1.0 | 6.0 | 0.00 | 0.00 | 0.00 | 80 | 1008.1 |
| 20260507014027 | 66 | 0 | 2.0 | 6.0 | 0.00 | 0.00 | 0.00 | 79 | 1007.9 |
| 20260507013525 | 66 | 246 | 1.0 | 7.0 | 0.00 | 0.00 | 0.00 | 79 | 1007.8 |
| 20260507013055 | 66 | 252 | 2.0 | 8.0 | 0.00 | 0.00 | 0.00 | 79 | 1008.1 |
| 20260507012525 | 66 | 214 | 2.0 | 8.0 | 0.00 | 0.00 | 0.00 | 79 | 1008.2 |
| 20260507012030 | 66 | 171 | 0.0 | 5.0 | 0.00 | 0.00 | 0.00 | 79 | 1008.1 |
| 20260507011540 | 66 | 240 | 1.0 | 6.0 | 0.00 | 0.00 | 0.00 | 79 | 1008.1 |
| 20260507011026 | 66 | 237 | 2.0 | 6.0 | 0.00 | 0.00 | 0.00 | 79 | 1008.1 |
| 20260507010526 | 66 | 244 | 2.0 | 4.0 | 0.00 | 0.00 | 0.00 | 79 | 1008.1 |
| 20260507010046 | 66 | 243 | 1.0 | 5.0 | 0.00 | 0.00 | 0.00 | 78 | 1008.2 |
| 20260507005525 | 66 | 249 | 2.0 | 5.0 | 0.00 | 0.00 | 0.00 | 78 | 1008.3 |
| 20260507005025 | 66 | 252 | 1.0 | 3.0 | 0.00 | 0.00 | 0.00 | 78 | 1008.4 |
| 20260507004544 | 66 | 269 | 1.0 | 4.0 | 0.00 | 0.00 | 0.00 | 78 | 1008.3 |
| 20260507004029 | 66 | 283 | 1.0 | 5.0 | 0.00 | 0.00 | 0.00 | 78 | 1008.3 |
| 20260507003527 | 66 | 260 | 1.0 | 5.0 | 0.00 | 0.00 | 0.00 | 77 | 1007.8 |
| 20260507003044 | 67 | 248 | 1.0 | 5.0 | 0.00 | 0.00 | 0.00 | 77 | 1007.6 |
| 20260507002525 | 67 | 248 | 1.0 | 5.0 | 0.00 | 0.00 | 0.00 | 77 | 1007.5 |
| 20260507002026 | 67 | 249 | 1.0 | 4.0 | 0.00 | 0.00 | 0.00 | 76 | 1007.4 |
| 20260507001555 | 67 | 198 | 1.0 | 5.0 | 0.00 | 0.00 | 0.00 | 76 | 1007.6 |
| 20260507001026 | 67 | 252 | 1.0 | 7.0 | 0.00 | 0.00 | 0.00 | 75 | 1007.6 |
| 20260507000530 | 67 | 221 | 1.0 | 7.0 | 0.00 | 0.00 | 0.00 | 75 | 1007.4 |
| 20260507000048 | 67 | 227 | 1.0 | 9.0 | 0.00 | 0.00 | 0.00 | 75 | 1007.3 |
| 20260506235526 | 68 | 191 | 1.0 | 9.0 | 0.00 | 0.00 | 0.00 | 75 | 1007.4 |
| 20260506235026 | 68 | 273 | 2.0 | 9.0 | 0.00 | 0.00 | 0.00 | 75 | 1007.5 |
| 20260506234546 | 68 | 284 | 2.0 | 10.0 | 0.00 | 0.00 | 0.00 | 74 | 1007.4 |
| 20260506234026 | 68 | 277 | 2.0 | 10.0 | 0.00 | 0.00 | 0.00 | 74 | 1007.4 |
| 20260506233526 | 68 | 217 | 3.0 | 10.0 | 0.00 | 0.00 | 0.00 | 74 | 1007.3 |
| 20260506233047 | 68 | 262 | 2.0 | 8.0 | 0.00 | 0.00 | 0.00 | 73 | 1007.4 |
| 20260506232526 | 68 | 276 | 2.0 | 8.0 | 0.00 | 0.00 | 0.00 | 73 | 1007.4 |
| 20260506232028 | 69 | 252 | 3.0 | 8.0 | 0.00 | 0.00 | 0.00 | 73 | 1007.4 |
| 20260506231547 | 69 | 0 | 1.0 | 11.0 | 0.00 | 0.00 | 0.00 | 72 | 1007.3 |
| 20260506231025 | 69 | 229 | 2.0 | 11.0 | 0.00 | 0.00 | 0.00 | 72 | 1007.3 |
| 20260506230526 | 69 | 165 | 2.0 | 12.0 | 0.00 | 0.00 | 0.00 | 72 | 1007.4 |
| 20260506230043 | 69 | 263 | 3.0 | 12.0 | 0.00 | 0.00 | 0.00 | 72 | 1007.4 |
| 20260506225525 | 69 | 252 | 5.0 | 12.0 | 0.00 | 0.00 | 0.00 | 72 | 1007.4 |
| 20260506225031 | 69 | 298 | 4.0 | 12.0 | 0.00 | 0.00 | 0.00 | 72 | 1007.4 |
| 20260506224544 | 69 | 280 | 2.0 | 9.0 | 0.00 | 0.00 | 0.00 | 72 | 1007.4 |
| 20260506224028 | 69 | 282 | 4.0 | 12.0 | 0.00 | 0.00 | 0.00 | 71 | 1007.3 |
| 20260506223524 | 69 | 303 | 4.0 | 12.0 | 0.00 | 0.00 | 0.00 | 71 | 1007.1 |
| 20260506223102 | 69 | 240 | 3.0 | 14.0 | 0.00 | 0.00 | 0.00 | 71 | 1007.2 |
| 20260506222526 | 70 | 252 | 5.0 | 14.0 | 0.00 | 0.00 | 0.00 | 71 | 1007.1 |
| 20260506222031 | 70 | 265 | 3.0 | 12.0 | 0.00 | 0.00 | 0.00 | 70 | 1007.3 |
| 20260506221543 | 70 | 235 | 2.0 | 8.0 | 0.00 | 0.00 | 0.00 | 70 | 1007.3 |
| 20260506221025 | 70 | 308 | 2.0 | 8.0 | 0.00 | 0.00 | 0.00 | 70 | 1007.2 |
| 20260506220525 | 70 | 242 | 1.0 | 8.0 | 0.00 | 0.00 | 0.00 | 71 | 1007.1 |
| 20260506220043 | 70 | 298 | 2.0 | 8.0 | 0.00 | 0.00 | 0.00 | 71 | 1007.1 |
| 20260506215525 | 70 | 277 | 2.0 | 8.0 | 0.00 | 0.00 | 0.00 | 72 | 1007.1 |
| 20260506215025 | 69 | 291 | 3.0 | 7.0 | 0.00 | 0.00 | 0.00 | 71 | 1007.1 |
| 20260506214541 | 69 | 271 | 3.0 | 14.0 | 0.00 | 0.00 | 0.00 | 72 | 1007.2 |
| 20260506214028 | 69 | 230 | 3.0 | 14.0 | 0.00 | 0.00 | 0.00 | 72 | 1007.2 |
| 20260506213527 | 69 | 277 | 4.0 | 14.0 | 0.00 | 0.00 | 0.00 | 71 | 1007.1 |
| 20260506213037 | 69 | 247 | 4.0 | 11.0 | 0.00 | 0.00 | 0.00 | 72 | 1007.1 |
| 20260506212528 | 69 | 256 | 3.0 | 9.0 | 0.00 | 0.00 | 0.00 | 71 | 1006.9 |
| 20260506212028 | 69 | 259 | 3.0 | 9.0 | 0.00 | 0.00 | 0.00 | 72 | 1006.9 |
| 20260506211546 | 69 | 271 | 2.0 | 9.0 | 0.00 | 0.00 | 0.00 | 72 | 1007.0 |
| 20260506211028 | 68 | 267 | 2.0 | 9.0 | 0.00 | 0.00 | 0.00 | 72 | 1007.0 |
| 20260506210524 | 68 | 263 | 4.0 | 11.0 | 0.00 | 0.00 | 0.00 | 72 | 1006.9 |
| 20260506210046 | 68 | 292 | 4.0 | 11.0 | 0.00 | 0.00 | 0.00 | 72 | 1006.8 |
| 20260506205525 | 68 | 288 | 4.0 | 11.0 | 0.00 | 0.00 | 0.00 | 72 | 1006.9 |
| 20260506205025 | 68 | 284 | 3.0 | 13.0 | 0.00 | 0.00 | 0.00 | 72 | 1006.9 |
| 20260506204542 | 68 | 238 | 5.0 | 15.0 | 0.00 | 0.00 | 0.00 | 72 | 1006.8 |
| 20260506204025 | 68 | 267 | 4.0 | 15.0 | 0.00 | 0.00 | 0.00 | 71 | 1006.7 |
| 20260506203525 | 68 | 294 | 5.0 | 12.0 | 0.00 | 0.00 | 0.00 | 71 | 1006.5 |
| 20260506203043 | 68 | 313 | 3.0 | 15.0 | 0.00 | 0.00 | 0.00 | 71 | 1006.6 |
| 20260506202528 | 68 | 284 | 5.0 | 17.0 | 0.00 | 0.00 | 0.00 | 72 | 1006.5 |
| 20260506202028 | 68 | 284 | 5.0 | 18.0 | 0.00 | 0.00 | 0.00 | 72 | 1006.6 |
| 20260506201544 | 68 | 276 | 7.0 | 18.0 | 0.00 | 0.00 | 0.00 | 71 | 1006.7 |
| 20260506201028 | 68 | 246 | 3.0 | 13.0 | 0.00 | 0.00 | 0.00 | 71 | 1006.7 |
| 20260506200527 | 68 | 298 | 6.0 | 14.0 | 0.00 | 0.00 | 0.00 | 72 | 1006.7 |
| 20260506200117 | 68 | 181 | 5.0 | 14.0 | 0.00 | 0.00 | 0.00 | 72 | 1006.8 |
| 20260506195527 | 67 | 220 | 5.0 | 13.0 | 0.00 | 0.00 | 0.00 | 73 | 1006.8 |
| 20260506195028 | 67 | 279 | 3.0 | 14.0 | 0.00 | 0.00 | 0.00 | 72 | 1006.9 |
| 20260506194543 | 67 | 277 | 6.0 | 17.0 | 0.00 | 0.00 | 0.00 | 73 | 1006.8 |
| 20260506194028 | 67 | 256 | 5.0 | 17.0 | 0.00 | 0.00 | 0.00 | 73 | 1007.0 |
| 20260506193527 | 67 | 319 | 6.0 | 15.0 | 0.00 | 0.00 | 0.00 | 74 | 1007.3 |
| 20260506193045 | 67 | 255 | 3.0 | 8.0 | 0.00 | 0.00 | 0.00 | 75 | 1007.4 |
| 20260506192525 | 67 | 272 | 3.0 | 12.0 | 0.00 | 0.00 | 0.00 | 75 | 1007.4 |
| 20260506192026 | 67 | 304 | 2.0 | 12.0 | 0.00 | 0.00 | 0.00 | 75 | 1007.3 |
| 20260506191540 | 67 | 210 | 3.0 | 14.0 | 0.00 | 0.00 | 0.00 | 75 | 1007.4 |
| 20260506191025 | 66 | 239 | 6.0 | 14.0 | 0.00 | 0.00 | 0.00 | 75 | 1007.5 |
| 20260506190528 | 66 | 188 | 4.0 | 12.0 | 0.00 | 0.00 | 0.00 | 75 | 1007.5 |
| 20260506190036 | 66 | 268 | 3.0 | 13.0 | 0.00 | 0.00 | 0.00 | 75 | 1007.5 |
| 20260506185527 | 66 | 253 | 4.0 | 13.0 | 0.00 | 0.00 | 0.00 | 75 | 1007.6 |
| 20260506185027 | 66 | 275 | 5.0 | 13.0 | 0.00 | 0.00 | 0.00 | 76 | 1007.5 |
| 20260506184546 | 66 | 235 | 4.0 | 13.0 | 0.00 | 0.00 | 0.00 | 76 | 1007.5 |
| 20260506184025 | 66 | 92 | 4.0 | 13.0 | 0.00 | 0.00 | 0.00 | 76 | 1007.6 |
| 20260506183527 | 66 | 218 | 6.0 | 14.0 | 0.00 | 0.00 | 0.00 | 76 | 1007.7 |
| 20260506183044 | 66 | 159 | 5.0 | 14.0 | 0.00 | 0.00 | 0.00 | 76 | 1007.8 |
| 20260506182525 | 66 | 310 | 4.0 | 15.0 | 0.00 | 0.00 | 0.00 | 76 | 1007.9 |
| 20260506182025 | 66 | 297 | 4.0 | 15.0 | 0.00 | 0.00 | 0.00 | 76 | 1007.8 |
| 20260506181544 | 66 | 225 | 7.0 | 15.0 | 0.00 | 0.00 | 0.00 | 76 | 1007.8 |
| 20260506181025 | 65 | 236 | 3.0 | 17.0 | 0.00 | 0.00 | 0.00 | 76 | 1007.8 |
| 20260506180529 | 65 | 221 | 5.0 | 17.0 | 0.00 | 0.00 | 0.00 | 76 | 1007.9 |
| 20260506180048 | 66 | 279 | 6.0 | 12.0 | 0.00 | 0.00 | 0.00 | 75 | 1007.9 |
| 20260506175527 | 66 | 290 | 5.0 | 13.0 | 0.00 | 0.00 | 0.00 | 75 | 1008.0 |
| 20260506175024 | 66 | 236 | 4.0 | 13.0 | 0.00 | 0.00 | 0.00 | 75 | 1008.0 |
| 20260506174545 | 66 | 278 | 4.0 | 12.0 | 0.00 | 0.00 | 0.00 | 74 | 1008.1 |
| 20260506174028 | 66 | 71 | 4.0 | 18.0 | 0.00 | 0.00 | 0.00 | 74 | 1008.0 |
| 20260506173529 | 66 | 259 | 7.0 | 19.0 | 0.00 | 0.00 | 0.00 | 74 | 1008.0 |
| 20260506173053 | 66 | 218 | 9.0 | 19.0 | 0.00 | 0.00 | 0.00 | 73 | 1008.2 |
| 20260506172527 | 66 | 137 | 5.0 | 14.0 | 0.00 | 0.00 | 0.00 | 74 | 1008.1 |
| 20260506172030 | 66 | 213 | 4.0 | 14.0 | 0.00 | 0.00 | 0.00 | 74 | 1008.3 |
| 20260506171551 | 66 | 244 | 4.0 | 14.0 | 0.00 | 0.00 | 0.00 | 74 | 1008.1 |
| 20260506171027 | 67 | 290 | 3.0 | 11.0 | 0.00 | 0.00 | 0.00 | 74 | 1008.3 |
| 20260506170526 | 67 | 286 | 3.0 | 12.0 | 0.00 | 0.00 | 0.00 | 73 | 1008.4 |
| 20260506170042 | 67 | 236 | 4.0 | 13.0 | 0.00 | 0.00 | 0.00 | 73 | 1008.5 |
| 20260506165528 | 67 | 229 | 4.0 | 13.0 | 0.00 | 0.00 | 0.00 | 73 | 1008.4 |
| 20260506165032 | 67 | 236 | 5.0 | 13.0 | 0.00 | 0.00 | 0.00 | 75 | 1008.4 |
| 20260506164543 | 66 | 227 | 5.0 | 13.0 | 0.00 | 0.00 | 0.00 | 75 | 1008.4 |
| 20260506164027 | 67 | 252 | 6.0 | 13.0 | 0.00 | 0.00 | 0.00 | 75 | 1008.6 |
| 20260506163525 | 67 | 285 | 3.0 | 10.0 | 0.00 | 0.00 | 0.00 | 76 | 1008.6 |
| 20260506163049 | 67 | 274 | 4.0 | 17.0 | 0.00 | 0.00 | 0.00 | 74 | 1008.6 |
| 20260506162530 | 67 | 268 | 3.0 | 18.0 | 0.00 | 0.00 | 0.00 | 73 | 1009.0 |
| 20260506162024 | 67 | 9 | 5.0 | 18.0 | 0.00 | 0.00 | 0.00 | 69 | 1009.1 |
| 20260506161553 | 68 | 252 | 6.0 | 18.0 | 0.00 | 0.00 | 0.00 | 67 | 1009.3 |
| 20260506161027 | 68 | 253 | 6.0 | 17.0 | 0.00 | 0.00 | 0.00 | 68 | 1009.4 |
| 20260506160527 | 69 | 221 | 2.0 | 12.0 | 0.00 | 0.00 | 0.00 | 67 | 1009.4 |
| 20260506160045 | 69 | 279 | 3.0 | 17.0 | 0.00 | 0.00 | 0.00 | 65 | 1009.5 |
| 20260506155527 | 69 | 217 | 5.0 | 17.0 | 0.00 | 0.00 | 0.00 | 65 | 1009.6 |
| 20260506155027 | 69 | 265 | 4.0 | 18.0 | 0.00 | 0.00 | 0.00 | 64 | 1009.6 |
| 20260506154544 | 69 | 166 | 4.0 | 18.0 | 0.00 | 0.00 | 0.00 | 63 | 1009.6 |
| 20260506154025 | 69 | 264 | 5.0 | 15.0 | 0.00 | 0.00 | 0.00 | 63 | 1009.5 |
| 20260506153525 | 69 | 259 | 3.0 | 12.0 | 0.00 | 0.00 | 0.00 | 63 | 1009.5 |
| 20260506153043 | 69 | 276 | 3.0 | 17.0 | 0.00 | 0.00 | 0.00 | 63 | 1009.4 |
| 20260506152528 | 69 | 280 | 6.0 | 17.0 | 0.00 | 0.00 | 0.00 | 63 | 1009.4 |
| 20260506152028 | 69 | 221 | 3.0 | 13.0 | 0.00 | 0.00 | 0.00 | 63 | 1009.4 |
| 20260506151546 | 69 | 255 | 4.0 | 13.0 | 0.00 | 0.00 | 0.00 | 62 | 1009.5 |
| 20260506151024 | 69 | 273 | 3.0 | 13.0 | 0.00 | 0.00 | 0.00 | 62 | 1009.6 |
| 20260506150527 | 69 | 253 | 3.0 | 12.0 | 0.00 | 0.00 | 0.00 | 62 | 1009.6 |
| 20260506150045 | 69 | 130 | 5.0 | 12.0 | 0.00 | 0.00 | 0.00 | 62 | 1009.5 |
| 20260506145528 | 69 | 244 | 3.0 | 12.0 | 0.00 | 0.00 | 0.00 | 62 | 1009.5 |
| 20260506145028 | 69 | 277 | 5.0 | 14.0 | 0.00 | 0.00 | 0.00 | 63 | 1009.6 |
| 20260506144543 | 68 | 169 | 4.0 | 14.0 | 0.00 | 0.00 | 0.00 | 62 | 1009.6 |
| 20260506144030 | 68 | 262 | 4.0 | 14.0 | 0.00 | 0.00 | 0.00 | 62 | 1009.6 |
| 20260506143527 | 68 | 271 | 3.0 | 11.0 | 0.00 | 0.00 | 0.00 | 63 | 1009.6 |
| 20260506143042 | 68 | 207 | 3.0 | 14.0 | 0.00 | 0.00 | 0.00 | 63 | 1009.7 |
| 20260506142528 | 68 | 224 | 2.0 | 14.0 | 0.00 | 0.00 | 0.00 | 63 | 1009.7 |
| 20260506142027 | 68 | 257 | 6.0 | 20.0 | 0.00 | 0.00 | 0.00 | 62 | 1009.6 |
| 20260506141546 | 68 | 289 | 3.0 | 20.0 | 0.00 | 0.00 | 0.00 | 62 | 1009.7 |
| 20260506141025 | 68 | 279 | 6.0 | 20.0 | 0.00 | 0.00 | 0.00 | 62 | 1009.6 |
| 20260506140525 | 68 | 124 | 4.0 | 14.0 | 0.00 | 0.00 | 0.00 | 61 | 1009.7 |
| 20260506140048 | 69 | 254 | 3.0 | 18.0 | 0.00 | 0.00 | 0.00 | 62 | 1009.6 |
| 20260506135535 | 68 | 290 | 6.0 | 18.0 | 0.00 | 0.00 | 0.00 | 61 | 1009.5 |
| 20260506135029 | 68 | 256 | 4.0 | 17.0 | 0.00 | 0.00 | 0.00 | 62 | 1009.5 |
| 20260506134610 | 68 | 263 | 5.0 | 18.0 | 0.00 | 0.00 | 0.00 | 62 | 1009.4 |
| 20260506134027 | 68 | 246 | 6.0 | 18.0 | 0.00 | 0.00 | 0.00 | 62 | 1009.4 |
| 20260506133528 | 68 | 238 | 7.0 | 14.0 | 0.00 | 0.00 | 0.00 | 62 | 1009.6 |
| 20260506133042 | 68 | 280 | 3.0 | 10.0 | 0.00 | 0.00 | 0.00 | 63 | 1009.5 |
| 20260506132527 | 68 | 275 | 4.0 | 15.0 | 0.00 | 0.00 | 0.00 | 63 | 1009.4 |
| 20260506132024 | 68 | 231 | 5.0 | 15.0 | 0.00 | 0.00 | 0.00 | 63 | 1009.4 |
| 20260506131553 | 68 | 262 | 6.0 | 16.0 | 0.00 | 0.00 | 0.00 | 63 | 1009.4 |
| 20260506131030 | 68 | 70 | 4.0 | 16.0 | 0.00 | 0.00 | 0.00 | 62 | 1009.5 |
| 20260506130528 | 68 | 195 | 5.0 | 13.0 | 0.00 | 0.00 | 0.00 | 63 | 1009.7 |
| 20260506130040 | 68 | 198 | 5.0 | 18.0 | 0.00 | 0.00 | 0.00 | 63 | 1009.7 |
| 20260506125528 | 68 | 247 | 5.0 | 18.0 | 0.00 | 0.00 | 0.00 | 63 | 1009.8 |
| 20260506125027 | 68 | 257 | 4.0 | 14.0 | 0.00 | 0.00 | 0.00 | 63 | 1009.7 |
| 20260506124545 | 68 | 164 | 3.0 | 14.0 | 0.00 | 0.00 | 0.00 | 64 | 1009.8 |
| 20260506124030 | 68 | 202 | 3.0 | 17.0 | 0.00 | 0.00 | 0.00 | 64 | 1009.7 |
| 20260506123528 | 68 | 109 | 5.0 | 17.0 | 0.00 | 0.00 | 0.00 | 63 | 1009.7 |
| 20260506123047 | 68 | 121 | 5.0 | 13.0 | 0.00 | 0.00 | 0.00 | 64 | 1009.6 |
| 20260506122527 | 67 | 273 | 3.0 | 13.0 | 0.00 | 0.00 | 0.00 | 65 | 1009.7 |
| 20260506122027 | 67 | 175 | 2.0 | 13.0 | 0.00 | 0.00 | 0.00 | 65 | 1009.6 |
| 20260506121542 | 67 | 155 | 5.0 | 13.0 | 0.00 | 0.00 | 0.00 | 66 | 1009.8 |
| 20260506121025 | 67 | 159 | 4.0 | 15.0 | 0.00 | 0.00 | 0.00 | 66 | 1009.7 |
| 20260506120530 | 66 | 228 | 6.0 | 15.0 | 0.00 | 0.00 | 0.00 | 67 | 1009.7 |
| 20260506120043 | 66 | 251 | 5.0 | 12.0 | 0.00 | 0.00 | 0.00 | 68 | 1009.6 |
| 20260506115526 | 65 | 265 | 3.0 | 11.0 | 0.00 | 0.00 | 0.00 | 69 | 1009.6 |
| 20260506115024 | 66 | 166 | 6.0 | 12.0 | 0.00 | 0.00 | 0.00 | 69 | 1009.7 |
| 20260506114551 | 66 | 155 | 4.0 | 13.0 | 0.00 | 0.00 | 0.00 | 69 | 1009.7 |
| 20260506114027 | 66 | 189 | 3.0 | 14.0 | 0.00 | 0.00 | 0.00 | 69 | 1009.7 |
| 20260506113528 | 65 | 258 | 4.0 | 14.0 | 0.00 | 0.00 | 0.00 | 70 | 1009.7 |
| 20260506113045 | 65 | 281 | 5.0 | 16.0 | 0.00 | 0.00 | 0.00 | 70 | 1009.7 |
| 20260506112524 | 65 | 194 | 5.0 | 16.0 | 0.00 | 0.00 | 0.00 | 70 | 1009.7 |
| 20260506112027 | 65 | 230 | 4.0 | 12.0 | 0.00 | 0.00 | 0.00 | 70 | 1009.7 |
| 20260506111547 | 65 | 202 | 2.0 | 11.0 | 0.00 | 0.00 | 0.00 | 70 | 1009.8 |
| 20260506111027 | 64 | 179 | 5.0 | 11.0 | 0.00 | 0.00 | 0.00 | 71 | 1009.8 |
| 20260506110527 | 64 | 259 | 2.0 | 11.0 | 0.00 | 0.00 | 0.00 | 72 | 1009.8 |
| 20260506110040 | 64 | 243 | 3.0 | 11.0 | 0.00 | 0.00 | 0.00 | 72 | 1009.8 |
| 20260506105527 | 63 | 212 | 3.0 | 13.0 | 0.00 | 0.00 | 0.00 | 73 | 1009.8 |
| 20260506105028 | 63 | 248 | 3.0 | 13.0 | 0.00 | 0.00 | 0.00 | 73 | 1009.7 |
| 20260506104536 | 63 | 131 | 3.0 | 11.0 | 0.00 | 0.00 | 0.00 | 74 | 1009.7 |
| 20260506104028 | 62 | 259 | 3.0 | 11.0 | 0.00 | 0.00 | 0.00 | 75 | 1009.7 |
| 20260506103528 | 62 | 292 | 3.0 | 8.0 | 0.00 | 0.00 | 0.00 | 75 | 1009.8 |
| 20260506103039 | 62 | 244 | 3.0 | 9.0 | 0.00 | 0.00 | 0.00 | 75 | 1009.8 |
| 20260506102528 | 62 | 296 | 2.0 | 9.0 | 0.00 | 0.00 | 0.00 | 76 | 1009.8 |
| 20260506102025 | 62 | 241 | 3.0 | 10.0 | 0.00 | 0.00 | 0.00 | 76 | 1009.8 |
| 20260506101545 | 62 | 155 | 2.0 | 10.0 | 0.00 | 0.00 | 0.00 | 76 | 1009.9 |
| 20260506101028 | 62 | 238 | 2.0 | 8.0 | 0.00 | 0.00 | 0.00 | 76 | 1009.9 |
| 20260506100528 | 62 | 273 | 1.0 | 13.0 | 0.00 | 0.00 | 0.00 | 76 | 1009.9 |
| 20260506100044 | 62 | 256 | 3.0 | 13.0 | 0.00 | 0.00 | 0.00 | 76 | 1009.8 |
| 20260506095529 | 62 | 199 | 2.0 | 11.0 | 0.00 | 0.00 | 0.00 | 77 | 1009.7 |
| 20260506095028 | 62 | 229 | 2.0 | 11.0 | 0.00 | 0.00 | 0.00 | 76 | 1009.7 |
| 20260506094540 | 62 | 211 | 1.0 | 9.0 | 0.00 | 0.00 | 0.00 | 77 | 1009.7 |
| 20260506094030 | 62 | 215 | 3.0 | 7.0 | 0.00 | 0.00 | 0.00 | 77 | 1009.5 |
| 20260506093524 | 62 | 122 | 1.0 | 11.0 | 0.00 | 0.00 | 0.00 | 77 | 1009.6 |
| 20260506093036 | 63 | 193 | 2.0 | 11.0 | 0.00 | 0.00 | 0.00 | 77 | 1009.6 |
| 20260506092528 | 63 | 250 | 5.0 | 11.0 | 0.00 | 0.00 | 0.00 | 77 | 1009.5 |
| 20260506092028 | 63 | 134 | 3.0 | 11.0 | 0.00 | 0.00 | 0.00 | 77 | 1009.4 |
| 20260506091545 | 63 | 214 | 2.0 | 11.0 | 0.00 | 0.00 | 0.00 | 77 | 1009.4 |
| 20260506091027 | 63 | 79 | 1.0 | 11.0 | 0.00 | 0.00 | 0.00 | 77 | 1009.5 |